Pittsburgh, Pennsylvania
Traffic Map
Current Weather Conditions
Pittsburgh, Pennsylvania
Overcast
Overcast
18°
Feels Like: 18°
Wind Chill: 18° Ceiling: 7500
Heat Index: 18° Visibility: 10mi
Dew Point: 11° Wind: 7mph
Humidity: 61% Direction: 190° (S)
Pressure: 29.82in Gusts: 0mph
Raw Report DataKAGC 232253Z 19006KT 10SM OVC075 18/11 A2982 RMK AO2 SLP098 T01830106
Traffic Incident Summary
Active as of:
Severity:
Category:
InformationThere was an issue retrieving the traffic information for this location. Please try a different location or try again shortly.
Advertisements
Track Severe Weather on mobile